createdAt,value
2023-04-22T00:02:05.260Z,10.80
2023-04-22T00:04:34.208Z,10.80
2023-04-22T00:07:01.765Z,10.70
2023-04-22T00:09:29.174Z,10.70
2023-04-22T00:11:56.737Z,10.70
2023-04-22T00:14:24.105Z,10.60
2023-04-22T00:16:51.451Z,10.60
2023-04-22T00:19:18.728Z,10.60
2023-04-22T00:21:45.979Z,10.60
2023-04-22T00:24:13.382Z,10.50
2023-04-22T00:26:40.823Z,10.50
2023-04-22T00:29:08.190Z,10.50
2023-04-22T00:31:35.587Z,10.50
2023-04-22T00:34:03.287Z,10.40
2023-04-22T00:36:31.465Z,10.40
2023-04-22T00:38:58.853Z,10.40
2023-04-22T00:41:27.771Z,10.30
2023-04-22T00:43:56.144Z,10.30
2023-04-22T00:46:24.581Z,10.30
2023-04-22T00:48:52.562Z,10.30
2023-04-22T00:51:20.281Z,10.20
2023-04-22T00:53:47.847Z,10.20
2023-04-22T00:56:16.072Z,10.20
2023-04-22T00:58:44.576Z,10.10
2023-04-22T01:01:12.553Z,10.10
2023-04-22T01:03:41.160Z,10.20
2023-04-22T01:06:08.844Z,10.10
2023-04-22T01:08:36.888Z,10.10
2023-04-22T01:11:04.346Z,10.10
2023-04-22T01:13:32.586Z,10.10
2023-04-22T01:16:01.576Z,10.10
2023-04-22T01:18:29.134Z,10.00
2023-04-22T01:20:57.724Z,10.00
2023-04-22T01:23:25.402Z,10.00
2023-04-22T01:25:52.942Z,9.90
2023-04-22T01:28:20.597Z,9.90
2023-04-22T01:30:49.712Z,9.90
2023-04-22T01:33:17.452Z,9.90
2023-04-22T01:35:45.272Z,9.90
2023-04-22T01:38:13.218Z,9.90
2023-04-22T01:40:41.435Z,9.80
2023-04-22T01:43:09.100Z,9.80
2023-04-22T01:45:37.164Z,9.80
2023-04-22T01:48:07.049Z,9.80
2023-04-22T01:50:34.823Z,9.70
2023-04-22T01:53:02.584Z,9.70
2023-04-22T01:55:30.911Z,9.70
2023-04-22T01:57:58.208Z,9.60
2023-04-22T02:00:25.625Z,9.60
2023-04-22T02:02:53.031Z,9.50
2023-04-22T02:05:20.509Z,9.50
2023-04-22T02:07:51.339Z,9.40
2023-04-22T02:10:18.715Z,9.40
2023-04-22T02:12:46.079Z,9.40
2023-04-22T02:15:15.056Z,9.40
2023-04-22T02:17:43.597Z,9.40
2023-04-22T02:20:13.124Z,9.40
2023-04-22T02:22:42.885Z,9.40
2023-04-22T02:25:12.247Z,9.40
2023-04-22T02:27:39.814Z,9.30
2023-04-22T02:30:08.640Z,9.30
2023-04-22T02:32:38.895Z,9.30
2023-04-22T02:35:06.948Z,9.30
2023-04-22T02:37:34.273Z,9.30
2023-04-22T02:40:01.607Z,9.30
2023-04-22T02:42:30.450Z,9.30
2023-04-22T02:44:57.994Z,9.30
2023-04-22T02:47:25.476Z,9.20
2023-04-22T02:49:52.760Z,9.10
2023-04-22T02:52:20.908Z,9.00
2023-04-22T02:54:48.201Z,8.90
2023-04-22T02:57:15.937Z,8.80
2023-04-22T02:59:43.380Z,8.80
2023-04-22T03:02:12.538Z,8.80
2023-04-22T03:05:03.060Z,8.80
2023-04-22T03:07:31.527Z,8.80
2023-04-22T03:09:59.938Z,8.80
2023-04-22T03:12:27.611Z,8.80
2023-04-22T03:14:55.015Z,8.80
2023-04-22T03:17:26.150Z,8.80
2023-04-22T03:19:53.903Z,8.70
2023-04-22T03:22:22.187Z,8.70
2023-04-22T03:24:51.959Z,8.70
2023-04-22T03:27:19.436Z,8.70
2023-04-22T03:29:47.080Z,8.70
2023-04-22T03:32:14.406Z,8.70
2023-04-22T03:34:41.974Z,8.70
2023-04-22T03:37:10.990Z,8.70
2023-04-22T03:39:38.874Z,8.70
2023-04-22T03:42:08.502Z,8.70
2023-04-22T03:44:41.265Z,8.80
2023-04-22T03:47:08.906Z,8.80
2023-04-22T03:49:43.161Z,8.80
2023-04-22T03:52:10.767Z,8.90
2023-04-22T03:54:45.763Z,8.90
2023-04-22T03:57:13.964Z,8.90
2023-04-22T03:59:41.754Z,8.90
2023-04-22T04:02:11.173Z,8.80
2023-04-22T04:04:38.884Z,8.80
2023-04-22T04:07:08.173Z,8.80
2023-04-22T04:09:37.197Z,8.80
2023-04-22T04:12:04.853Z,8.80
2023-04-22T04:14:37.186Z,8.90
2023-04-22T04:17:09.374Z,8.90
2023-04-22T04:19:38.413Z,9.00
2023-04-22T04:22:07.038Z,9.00
2023-04-22T04:24:42.283Z,9.10
2023-04-22T04:27:16.552Z,9.40
2023-04-22T04:29:50.939Z,9.80
2023-04-22T04:32:28.882Z,10.10
2023-04-22T04:34:58.209Z,10.40
2023-04-22T04:37:26.391Z,10.70
2023-04-22T04:40:01.724Z,10.90
2023-04-22T04:42:42.555Z,11.20
2023-04-22T04:45:17.663Z,11.40
2023-04-22T04:47:46.477Z,11.50
2023-04-22T04:50:22.117Z,11.60
2023-04-22T04:52:52.768Z,11.80
2023-04-22T04:55:25.856Z,11.90
2023-04-22T04:57:54.028Z,12.20
2023-04-22T05:00:21.457Z,12.40
2023-04-22T05:02:49.626Z,12.60
2023-04-22T05:05:17.396Z,12.80
2023-04-22T05:07:44.714Z,13.00
2023-04-22T05:10:15.040Z,13.20
2023-04-22T05:12:44.128Z,13.40
2023-04-22T05:15:15.805Z,13.50
2023-04-22T05:17:43.696Z,13.70
2023-04-22T05:20:11.601Z,13.90
2023-04-22T05:22:43.453Z,14.00
2023-04-22T05:25:11.441Z,14.20
2023-04-22T05:27:44.440Z,14.40
2023-04-22T05:30:13.262Z,14.50
2023-04-22T05:32:40.919Z,14.60
2023-04-22T05:35:10.441Z,14.80
2023-04-22T05:37:38.454Z,14.90
2023-04-22T05:40:06.846Z,15.10
2023-04-22T05:42:35.061Z,15.30
2023-04-22T05:45:02.428Z,15.50
2023-04-22T05:47:30.455Z,15.60
2023-04-22T05:49:59.462Z,15.70
2023-04-22T05:52:38.489Z,15.80
2023-04-22T05:55:11.851Z,16.00
2023-04-22T05:57:39.164Z,16.10
2023-04-22T06:00:13.923Z,16.20
2023-04-22T06:02:44.097Z,16.40
2023-04-22T06:05:11.929Z,16.60
2023-04-22T06:07:40.352Z,16.70
2023-04-22T06:10:08.621Z,16.90
2023-04-22T06:12:36.296Z,17.10
2023-04-22T06:15:05.269Z,17.20
2023-04-22T06:17:32.887Z,17.30
2023-04-22T06:20:00.774Z,17.30
2023-04-22T06:22:28.226Z,17.50
2023-04-22T06:24:55.464Z,17.60
2023-04-22T06:27:22.944Z,17.70
2023-04-22T06:29:50.638Z,17.70
2023-04-22T06:32:18.165Z,17.80
2023-04-22T06:34:45.472Z,17.80
2023-04-22T06:37:12.931Z,17.80
2023-04-22T06:39:40.809Z,17.90
2023-04-22T06:42:46.451Z,18.00
2023-04-22T06:45:36.730Z,18.00
2023-04-22T06:48:18.294Z,18.00
2023-04-22T06:51:05.860Z,17.90
2023-04-22T06:53:33.473Z,17.90
2023-04-22T06:56:00.985Z,17.80
2023-04-22T06:58:28.458Z,17.90
2023-04-22T07:00:56.082Z,17.90
2023-04-22T07:03:23.824Z,18.00
2023-04-22T07:06:01.285Z,18.00
2023-04-22T07:08:30.935Z,18.20
2023-04-22T07:10:58.534Z,18.30
2023-04-22T07:13:51.953Z,18.40
2023-04-22T07:16:19.625Z,18.40
2023-04-22T07:18:47.352Z,18.50
2023-04-22T07:21:14.886Z,18.70
2023-04-22T07:23:42.520Z,18.70
2023-04-22T07:26:09.864Z,18.70
2023-04-22T07:28:37.444Z,18.80
2023-04-22T07:31:05.217Z,18.90
2023-04-22T07:33:32.650Z,19.00
2023-04-22T07:36:00.488Z,19.10
2023-04-22T07:38:28.046Z,19.20
2023-04-22T07:40:55.316Z,19.30
2023-04-22T07:43:22.629Z,19.40
2023-04-22T07:45:50.122Z,19.50
2023-04-22T07:48:17.747Z,19.60
2023-04-22T07:50:45.102Z,19.70
2023-04-22T07:53:13.380Z,19.70
2023-04-22T07:55:41.273Z,19.70
2023-04-22T07:58:08.550Z,19.80
2023-04-22T08:00:36.083Z,19.90
2023-04-22T08:03:04.081Z,20.00
2023-04-22T08:05:31.526Z,20.20
2023-04-22T08:08:02.444Z,20.30
2023-04-22T08:10:29.871Z,20.40
2023-04-22T08:13:01.311Z,20.50
2023-04-22T08:15:28.978Z,20.50
2023-04-22T08:17:56.868Z,20.50
2023-04-22T08:20:25.576Z,20.50
2023-04-22T08:22:57.218Z,20.60
2023-04-22T08:25:24.698Z,20.70
2023-04-22T08:27:52.022Z,20.80
2023-04-22T08:30:19.813Z,20.80
2023-04-22T08:32:49.855Z,20.80
2023-04-22T08:35:17.312Z,20.90
2023-04-22T08:37:44.722Z,20.90
2023-04-22T08:40:12.074Z,21.00
2023-04-22T08:42:40.372Z,21.10
2023-04-22T08:45:09.954Z,21.30
2023-04-22T08:47:38.759Z,21.40
2023-04-22T08:50:07.312Z,21.50
2023-04-22T08:52:35.125Z,21.60
2023-04-22T08:55:02.551Z,21.70
2023-04-22T08:57:30.344Z,21.70
2023-04-22T08:59:57.862Z,21.70
2023-04-22T09:02:26.638Z,21.70
2023-04-22T09:04:54.291Z,21.80
2023-04-22T09:07:28.651Z,21.80
2023-04-22T09:09:56.634Z,22.00
2023-04-22T09:12:25.744Z,22.10
2023-04-22T09:14:54.584Z,22.10
2023-04-22T09:17:33.473Z,22.20
2023-04-22T09:20:07.194Z,22.30
2023-04-22T09:22:49.100Z,22.40
2023-04-22T09:25:21.452Z,22.50
2023-04-22T09:27:53.308Z,22.50
2023-04-22T09:30:36.567Z,22.50
2023-04-22T09:33:05.941Z,22.50
2023-04-22T09:35:35.450Z,22.60
2023-04-22T09:38:04.630Z,22.80
2023-04-22T09:40:32.539Z,23.00
2023-04-22T09:43:03.278Z,23.10
2023-04-22T09:45:38.371Z,23.30
2023-04-22T09:48:14.726Z,23.40
2023-04-22T09:50:50.193Z,23.40
2023-04-22T09:53:20.449Z,23.60
2023-04-22T09:55:51.002Z,23.50
2023-04-22T09:58:20.888Z,23.50
2023-04-22T10:00:54.305Z,23.40
2023-04-22T10:03:22.197Z,23.50
2023-04-22T10:05:49.612Z,23.50
2023-04-22T10:08:17.339Z,23.50
2023-04-22T10:10:44.898Z,23.50
2023-04-22T10:13:12.547Z,23.50
2023-04-22T10:15:48.478Z,23.50
2023-04-22T10:18:21.461Z,23.40
2023-04-22T10:20:50.104Z,23.50
2023-04-22T10:23:23.528Z,23.60
2023-04-22T10:25:54.314Z,23.70
2023-04-22T10:28:23.519Z,23.70
2023-04-22T10:30:51.152Z,23.80
2023-04-22T10:33:21.579Z,23.80
2023-04-22T10:36:11.000Z,23.80
2023-04-22T10:39:03.342Z,23.80
2023-04-22T10:41:33.297Z,23.90
2023-04-22T10:44:08.111Z,24.00
2023-04-22T10:46:37.573Z,24.10
2023-04-22T10:49:10.429Z,24.20
2023-04-22T10:51:52.690Z,24.30
2023-04-22T10:54:31.565Z,24.20
2023-04-22T10:57:14.795Z,24.10
2023-04-22T10:59:52.292Z,24.10
2023-04-22T11:02:20.464Z,24.20
2023-04-22T11:04:48.501Z,24.20
2023-04-22T11:07:20.752Z,24.30
2023-04-22T11:09:52.002Z,24.30
2023-04-22T11:12:42.162Z,24.30
2023-04-22T11:15:12.509Z,24.30
2023-04-22T11:17:43.248Z,24.30
2023-04-22T11:20:12.987Z,24.40
2023-04-22T11:22:43.529Z,24.40
2023-04-22T11:25:11.605Z,24.50
2023-04-22T11:27:40.655Z,24.60
2023-04-22T11:30:13.436Z,24.50
2023-04-22T11:32:45.192Z,24.60
2023-04-22T11:35:24.635Z,24.60
2023-04-22T11:37:56.016Z,24.60
2023-04-22T11:42:56.701Z,24.70
2023-04-22T11:45:24.462Z,24.80
2023-04-22T11:47:52.896Z,24.90
2023-04-22T11:50:41.542Z,24.90
2023-04-22T11:53:16.829Z,24.90
2023-04-22T11:55:46.738Z,24.90
2023-04-22T11:58:18.749Z,25.00
2023-04-22T12:00:51.258Z,25.00
2023-04-22T12:03:31.537Z,25.00
2023-04-22T12:06:06.266Z,25.00
2023-04-22T12:08:42.169Z,25.00
2023-04-22T12:11:11.269Z,25.10
2023-04-22T12:13:38.598Z,25.10
2023-04-22T12:16:18.117Z,25.20
2023-04-22T12:18:50.348Z,25.10
2023-04-22T12:21:20.565Z,25.10
2023-04-22T12:23:50.591Z,24.90
2023-04-22T12:26:19.865Z,24.90
2023-04-22T12:28:47.782Z,25.00
2023-04-22T12:31:15.556Z,25.20
2023-04-22T12:33:44.632Z,25.40
2023-04-22T12:36:12.094Z,25.40
2023-04-22T12:38:39.920Z,25.50
2023-04-22T12:41:08.298Z,25.60
2023-04-22T12:43:36.850Z,25.60
2023-04-22T12:46:06.530Z,25.70
2023-04-22T12:48:34.333Z,25.50
2023-04-22T12:51:01.651Z,25.40
2023-04-22T12:53:29.279Z,25.50
2023-04-22T12:55:56.978Z,25.50
2023-04-22T12:58:24.930Z,25.50
2023-04-22T13:00:52.171Z,25.50
2023-04-22T13:03:20.121Z,25.50
2023-04-22T13:05:47.720Z,25.70
2023-04-22T13:08:15.171Z,25.80
2023-04-22T13:10:42.467Z,25.90
2023-04-22T13:13:18.386Z,25.90
2023-04-22T13:15:47.872Z,25.80
2023-04-22T13:18:16.969Z,25.90
2023-04-22T13:20:44.842Z,25.90
2023-04-22T13:23:13.266Z,26.00
2023-04-22T13:25:40.697Z,26.00
2023-04-22T13:28:08.007Z,25.90
2023-04-22T13:30:36.032Z,26.00
2023-04-22T13:33:03.488Z,26.00
2023-04-22T13:35:31.409Z,26.00
2023-04-22T13:37:58.985Z,25.90
2023-04-22T13:40:27.339Z,25.90
2023-04-22T13:42:55.295Z,25.90
2023-04-22T13:45:22.767Z,26.00
2023-04-22T13:47:50.120Z,26.10
2023-04-22T13:50:17.867Z,26.00
2023-04-22T13:52:45.496Z,25.90
2023-04-22T13:55:13.056Z,25.80
2023-04-22T13:57:40.436Z,25.70
2023-04-22T14:00:09.415Z,25.60
2023-04-22T14:02:39.998Z,25.70
2023-04-22T14:05:07.695Z,25.70
2023-04-22T14:07:34.953Z,25.70
2023-04-22T14:10:02.279Z,25.70
2023-04-22T14:12:29.542Z,25.60
2023-04-22T14:14:56.935Z,25.50
2023-04-22T14:17:24.210Z,25.40
2023-04-22T14:19:52.683Z,25.30
2023-04-22T14:22:20.125Z,25.30
2023-04-22T14:24:48.718Z,25.40
2023-04-22T14:27:16.346Z,25.50
2023-04-22T14:29:44.010Z,25.40
2023-04-22T14:32:11.702Z,25.10
2023-04-22T14:34:39.568Z,25.00
2023-04-22T14:37:07.136Z,25.00
2023-04-22T14:39:34.511Z,25.00
2023-04-22T14:42:02.526Z,25.10
2023-04-22T14:44:29.871Z,25.10
2023-04-22T14:46:57.607Z,25.00
2023-04-22T14:49:25.079Z,25.10
2023-04-22T14:51:57.846Z,25.10
2023-04-22T14:54:25.910Z,25.10
2023-04-22T14:56:55.403Z,25.00
2023-04-22T14:59:22.736Z,25.00
2023-04-22T15:01:51.360Z,24.90
2023-04-22T15:04:19.519Z,24.80
2023-04-22T15:06:46.888Z,24.70
2023-04-22T15:09:14.395Z,24.70
2023-04-22T15:11:41.638Z,24.70
2023-04-22T15:14:08.937Z,24.70
2023-04-22T15:16:36.399Z,24.60
2023-04-22T15:19:03.721Z,24.50
2023-04-22T15:21:31.973Z,24.40
2023-04-22T15:23:59.453Z,24.40
2023-04-22T15:26:26.944Z,24.40
2023-04-22T15:28:54.428Z,24.40
2023-04-22T15:31:21.762Z,24.40
2023-04-22T15:33:49.623Z,24.30
2023-04-22T15:36:19.970Z,24.30
2023-04-22T15:38:47.597Z,24.20
2023-04-22T15:41:15.821Z,24.10
2023-04-22T15:43:43.109Z,24.10
2023-04-22T15:46:10.533Z,24.10
2023-04-22T15:48:37.934Z,24.00
2023-04-22T15:51:05.191Z,24.10
2023-04-22T15:53:32.887Z,24.00
2023-04-22T15:56:00.178Z,24.00
2023-04-22T15:58:29.048Z,23.90
2023-04-22T16:01:11.457Z,23.80
2023-04-22T16:03:45.256Z,23.80
2023-04-22T16:06:12.795Z,23.70
2023-04-22T16:08:40.477Z,23.70
2023-04-22T16:11:07.866Z,23.60
2023-04-22T16:13:35.282Z,23.60
2023-04-22T16:16:03.121Z,23.60
2023-04-22T16:18:30.722Z,23.50
2023-04-22T16:20:59.980Z,23.40
2023-04-22T16:23:27.948Z,23.40
2023-04-22T16:25:55.520Z,23.30
2023-04-22T16:28:22.848Z,23.20
2023-04-22T16:30:50.304Z,23.10
2023-04-22T16:33:17.609Z,23.10
2023-04-22T16:35:45.069Z,23.10
2023-04-22T16:38:12.441Z,23.00
2023-04-22T16:40:40.257Z,22.90
2023-04-22T16:43:07.815Z,22.80
2023-04-22T16:45:35.329Z,22.80
2023-04-22T16:48:02.628Z,22.70
2023-04-22T16:50:29.931Z,22.60
2023-04-22T16:52:57.289Z,22.60
2023-04-22T16:55:24.870Z,22.50
2023-04-22T16:57:52.269Z,22.40
2023-04-22T17:00:20.983Z,22.30
2023-04-22T17:02:48.467Z,22.30
2023-04-22T17:05:16.030Z,22.20
2023-04-22T17:07:43.379Z,22.10
2023-04-22T17:10:11.403Z,22.10
2023-04-22T17:12:38.901Z,21.90
2023-04-22T17:15:06.965Z,21.90
2023-04-22T17:17:34.355Z,21.80
2023-04-22T17:20:02.494Z,21.70
2023-04-22T17:22:29.889Z,21.60
2023-04-22T17:24:58.721Z,21.50
2023-04-22T17:27:27.011Z,21.40
2023-04-22T17:29:54.408Z,21.30
2023-04-22T17:32:21.804Z,21.20
2023-04-22T17:34:49.115Z,21.10
2023-04-22T17:37:16.572Z,21.00
2023-04-22T17:39:43.848Z,20.90
2023-04-22T17:42:11.764Z,20.80
2023-04-22T17:44:39.361Z,20.70
2023-04-22T17:47:07.681Z,20.60
2023-04-22T17:49:35.383Z,20.40
2023-04-22T17:52:02.768Z,20.30
2023-04-22T17:54:30.013Z,20.20
2023-04-22T17:56:57.533Z,20.10
2023-04-22T17:59:24.976Z,20.00
2023-04-22T18:01:52.285Z,19.90
2023-04-22T18:04:20.010Z,19.80
2023-04-22T18:06:47.341Z,19.70
2023-04-22T18:09:14.604Z,19.60
2023-04-22T18:11:42.324Z,19.60
2023-04-22T18:14:09.935Z,19.50
2023-04-22T18:16:37.257Z,19.40
2023-04-22T18:19:06.753Z,19.30
2023-04-22T18:21:34.521Z,19.30
2023-04-22T18:24:02.698Z,19.20
2023-04-22T18:26:30.212Z,19.10
2023-04-22T18:28:57.851Z,19.10
2023-04-22T18:31:25.781Z,19.00
2023-04-22T18:33:53.352Z,19.00
2023-04-22T18:36:21.394Z,18.90
2023-04-22T18:38:48.641Z,18.80
2023-04-22T18:41:16.582Z,18.80
2023-04-22T18:43:43.829Z,18.70
2023-04-22T18:46:11.147Z,18.70
2023-04-22T18:48:38.436Z,18.60
2023-04-22T18:51:06.187Z,18.60
2023-04-22T18:53:34.435Z,18.50
2023-04-22T18:56:02.117Z,18.50
2023-04-22T18:58:29.449Z,18.40
2023-04-22T19:00:56.982Z,18.40
2023-04-22T19:03:24.448Z,18.40
2023-04-22T19:05:51.814Z,18.30
2023-04-22T19:08:19.045Z,18.30
2023-04-22T19:10:46.687Z,18.30
2023-04-22T19:13:28.467Z,18.20
2023-04-22T19:15:58.259Z,18.20
2023-04-22T19:18:26.203Z,18.20
2023-04-22T19:20:53.596Z,18.10
2023-04-22T19:23:21.599Z,18.10
2023-04-22T19:25:48.858Z,18.00
2023-04-22T19:28:16.151Z,17.90
2023-04-22T19:30:43.494Z,17.90
2023-04-22T19:33:11.092Z,17.90
2023-04-22T19:35:38.390Z,17.80
2023-04-22T19:38:06.000Z,17.80
2023-04-22T19:40:36.771Z,17.80
2023-04-22T19:43:04.480Z,17.70
2023-04-22T19:45:32.139Z,17.70
2023-04-22T19:47:59.680Z,17.70
2023-04-22T19:50:27.748Z,17.60
2023-04-22T19:53:04.845Z,17.60
2023-04-22T19:55:36.604Z,17.50
2023-04-22T19:58:04.592Z,17.40
2023-04-22T20:00:33.071Z,17.40
2023-04-22T20:03:00.750Z,17.40
2023-04-22T20:05:28.579Z,17.30
2023-04-22T20:07:59.932Z,17.30
2023-04-22T20:10:27.775Z,17.30
2023-04-22T20:12:55.388Z,17.30
2023-04-22T20:15:23.057Z,17.30
2023-04-22T20:17:51.614Z,17.20
2023-04-22T20:20:19.495Z,17.20
2023-04-22T20:22:48.527Z,17.20
2023-04-22T20:25:19.899Z,17.20
2023-04-22T20:27:48.241Z,17.10
2023-04-22T20:30:15.914Z,17.10
2023-04-22T20:32:43.373Z,17.10
2023-04-22T20:35:14.984Z,17.10
2023-04-22T20:37:44.391Z,17.00
2023-04-22T20:40:14.751Z,17.00
2023-04-22T20:42:42.132Z,16.90
2023-04-22T20:45:14.874Z,16.90
2023-04-22T20:47:42.845Z,16.90
2023-04-22T20:50:10.924Z,16.80
2023-04-22T20:52:39.135Z,16.80
2023-04-22T20:55:07.099Z,16.80
2023-04-22T20:57:34.539Z,16.70
2023-04-22T21:00:01.861Z,16.70
2023-04-22T21:02:30.231Z,16.60
2023-04-22T21:04:58.896Z,16.60
2023-04-22T21:07:30.590Z,16.50
2023-04-22T21:09:58.272Z,16.40
2023-04-22T21:12:25.836Z,16.40
2023-04-22T21:14:53.713Z,16.30
2023-04-22T21:17:25.512Z,16.30
2023-04-22T21:19:56.860Z,16.30
2023-04-22T21:22:25.341Z,16.30
2023-04-22T21:24:53.812Z,16.30
2023-04-22T21:27:22.069Z,16.20
2023-04-22T21:29:50.233Z,16.20
2023-04-22T21:32:20.120Z,16.10
2023-04-22T21:34:47.629Z,16.10
2023-04-22T21:37:15.034Z,16.10
2023-04-22T21:39:42.422Z,16.10
2023-04-22T21:42:09.732Z,16.10
2023-04-22T21:44:38.203Z,16.00
2023-04-22T21:47:06.423Z,16.00
2023-04-22T21:49:33.745Z,15.90
2023-04-22T21:52:01.184Z,15.90
2023-04-22T21:54:28.842Z,15.90
2023-04-22T21:56:57.637Z,15.80
2023-04-22T21:59:25.163Z,15.90
2023-04-22T22:01:53.001Z,15.80
2023-04-22T22:04:20.595Z,15.80
2023-04-22T22:06:49.055Z,15.70
2023-04-22T22:09:16.730Z,15.70
2023-04-22T22:11:43.987Z,15.70
2023-04-22T22:14:11.397Z,15.70
2023-04-22T22:16:39.262Z,15.70
2023-04-22T22:19:06.584Z,15.70
2023-04-22T22:21:33.965Z,15.60
2023-04-22T22:24:01.228Z,15.70
2023-04-22T22:26:29.206Z,15.60
2023-04-22T22:28:56.693Z,15.60
2023-04-22T22:31:24.199Z,15.50
2023-04-22T22:33:51.485Z,15.50
2023-04-22T22:36:19.069Z,15.50
2023-04-22T22:38:46.395Z,15.50
2023-04-22T22:41:14.125Z,15.50
2023-04-22T22:43:41.384Z,15.50
2023-04-22T22:46:08.815Z,15.50
2023-04-22T22:48:36.983Z,15.50
2023-04-22T22:51:04.406Z,15.40
2023-04-22T22:53:33.811Z,15.40
2023-04-22T22:56:01.057Z,15.40
2023-04-22T22:58:28.719Z,15.30
2023-04-22T23:00:56.314Z,15.30
2023-04-22T23:03:23.757Z,15.30
2023-04-22T23:05:51.100Z,15.20
2023-04-22T23:08:18.453Z,15.20
2023-04-22T23:10:45.869Z,15.10
2023-04-22T23:13:13.301Z,15.10
2023-04-22T23:15:40.995Z,15.10
2023-04-22T23:18:09.765Z,15.10
2023-04-22T23:20:37.761Z,15.00
2023-04-22T23:23:05.674Z,15.00
2023-04-22T23:25:33.514Z,15.00
2023-04-22T23:28:01.741Z,15.00
2023-04-22T23:30:29.555Z,14.90
2023-04-22T23:32:57.784Z,14.90
2023-04-22T23:35:27.568Z,14.90
2023-04-22T23:37:56.596Z,14.90
2023-04-22T23:40:23.833Z,14.90
2023-04-22T23:42:51.097Z,14.90
2023-04-22T23:45:18.378Z,14.90
2023-04-22T23:47:45.931Z,14.80
2023-04-22T23:50:14.464Z,14.80
2023-04-22T23:52:42.790Z,14.80
2023-04-22T23:55:13.059Z,14.90
2023-04-22T23:57:40.631Z,14.90
